Time;durP1;ratioP1;P1;durP2;ratioP2;P2;SDS_P1;SDS_P2;PMS_P1;PMS_P2;Temp;Humidity;BMP_temperature;BMP_pressure;BME280_temperature;BME280_humidity;BME280_pressure;Samples;Min_cycle;Max_cycle;Signal;HPM_P1;HPM_P2
2023/04/14 00:01:17;;;;;;;45.40;28.60;;;;;;;4.51;100.00;100300.10;110561;1234;68670;-66
2023/04/14 00:03:46;;;;;;;41.20;26.20;;;;;;;4.51;100.00;100305.27;110557;1236;71175;-66
2023/04/14 00:06:15;;;;;;;42.20;27.50;;;;;;;4.50;100.00;100308.65;110545;1236;58514;-67
2023/04/14 00:08:43;;;;;;;41.10;26.90;;;;;;;4.47;100.00;100311.91;110585;1235;60388;-67
2023/04/14 00:11:12;;;;;;;37.80;24.90;;;;;;;4.43;100.00;100310.21;110427;1237;63430;-67
2023/04/14 00:13:41;;;;;;;36.70;23.90;;;;;;;4.38;100.00;100309.80;110598;1236;61590;-67
2023/04/14 00:16:11;;;;;;;36.70;24.80;;;;;;;4.32;100.00;100309.64;110578;1234;70452;-66
2023/04/14 00:18:40;;;;;;;36.90;24.50;;;;;;;4.28;100.00;100317.24;110413;1234;73446;-68
2023/04/14 00:21:08;;;;;;;37.40;23.10;;;;;;;4.27;100.00;100320.41;110598;1234;62951;-68
2023/04/14 00:23:37;;;;;;;33.20;22.50;;;;;;;4.26;100.00;100319.06;110629;1236;57748;-68
2023/04/14 00:26:06;;;;;;;34.40;21.60;;;;;;;4.26;100.00;100321.65;110636;1235;63686;-66
2023/04/14 00:28:35;;;;;;;36.50;21.30;;;;;;;4.22;100.00;100323.59;110460;1235;71320;-66
2023/04/14 00:31:03;;;;;;;31.90;20.80;;;;;;;4.21;100.00;100323.95;110495;1234;69954;-77
2023/04/14 00:33:32;;;;;;;31.80;21.30;;;;;;;4.18;100.00;100327.54;110365;1234;63743;-68
2023/04/14 00:36:02;;;;;;;30.70;20.30;;;;;;;4.19;100.00;100327.88;110444;1237;62075;-68
2023/04/14 00:38:31;;;;;;;28.20;19.60;;;;;;;4.18;100.00;100331.02;110391;1236;57742;-72
2023/04/14 00:41:00;;;;;;;32.70;20.70;;;;;;;4.16;100.00;100333.86;110419;1236;62979;-66
2023/04/14 00:43:29;;;;;;;31.30;20.40;;;;;;;4.15;100.00;100331.36;110579;1234;70593;-68
2023/04/14 00:45:57;;;;;;;29.70;19.30;;;;;;;4.13;100.00;100329.04;110596;1235;70919;-68
2023/04/14 00:48:26;;;;;;;28.40;19.50;;;;;;;4.11;100.00;100330.17;110533;1234;63755;-68
2023/04/14 00:50:55;;;;;;;34.30;21.50;;;;;;;4.09;100.00;100330.27;110374;1237;58313;-68
2023/04/14 00:53:24;;;;;;;29.20;19.50;;;;;;;4.08;100.00;100332.23;110283;1235;57690;-68
2023/04/14 00:55:53;;;;;;;29.80;19.50;;;;;;;4.08;100.00;100327.75;110213;1235;73530;-67
2023/04/14 00:58:21;;;;;;;33.90;21.10;;;;;;;4.06;100.00;100326.29;110114;1235;72836;-68
2023/04/14 01:00:54;;;;;;;32.30;21.40;;;;;;;4.07;100.00;100325.05;110122;1238;60000;-68
2023/04/14 01:03:23;;;;;;;31.30;20.50;;;;;;;4.08;100.00;100324.33;110099;1235;63241;-68
2023/04/14 01:05:52;;;;;;;40.40;22.10;;;;;;;4.08;100.00;100319.83;110203;1236;58328;-67
2023/04/14 01:08:22;;;;;;;30.10;19.60;;;;;;;4.10;100.00;100321.65;110074;1235;57745;-68
2023/04/14 01:11:20;;;;;;;35.10;20.40;;;;;;;4.09;100.00;100325.30;109974;1239;63678;-67
2023/04/14 01:14:46;;;;;;;32.90;20.10;;;;;;;4.05;100.00;100320.98;110127;1235;72091;-67
2023/04/14 01:17:43;;;;;;;31.20;20.30;;;;;;;4.02;100.00;100322.70;110314;1236;60282;-67
2023/04/14 01:20:32;;;;;;;35.20;21.60;;;;;;;3.98;100.00;100323.08;110201;1234;72947;-68
2023/04/14 01:23:08;;;;;;;40.00;24.10;;;;;;;3.99;100.00;100323.41;110093;1238;61617;-66
2023/04/14 01:26:27;;;;;;;33.70;21.60;;;;;;;3.98;100.00;100324.96;110206;1235;60855;-67
2023/04/14 01:29:16;;;;;;;33.10;21.30;;;;;;;3.91;100.00;100323.10;110126;1234;74650;-67
2023/04/14 01:32:04;;;;;;;33.50;20.70;;;;;;;3.88;100.00;100321.36;110253;1236;61209;-67
2023/04/14 01:34:50;;;;;;;40.00;22.10;;;;;;;3.83;100.00;100321.23;110153;1238;60006;-67
2023/04/14 01:37:29;;;;;;;38.00;21.80;;;;;;;3.84;100.00;100319.85;110198;1236;73999;-67
2023/04/14 01:40:04;;;;;;;34.40;20.20;;;;;;;3.80;100.00;100317.29;110206;1237;58630;-67
2023/04/14 01:42:36;;;;;;;33.10;20.90;;;;;;;3.76;100.00;100318.52;110188;1235;58373;-67
2023/04/14 01:45:22;;;;;;;32.90;21.50;;;;;;;3.70;100.00;100317.75;110380;1238;62975;-67
2023/04/14 01:47:52;;;;;;;33.20;20.90;;;;;;;3.60;100.00;100320.67;110417;1235;70745;-68
2023/04/14 01:50:22;;;;;;;34.30;22.40;;;;;;;3.54;100.00;100322.20;110134;1238;60240;-69
2023/04/14 01:52:55;;;;;;;34.00;22.10;;;;;;;3.49;100.00;100317.27;110091;1235;73774;-66
2023/04/14 01:55:30;;;;;;;36.10;22.40;;;;;;;3.46;100.00;100319.67;110129;1238;62471;-68
2023/04/14 01:58:00;;;;;;;33.90;22.10;;;;;;;3.43;100.00;100323.21;110235;1238;58143;-68
2023/04/14 02:00:31;;;;;;;36.90;22.40;;;;;;;3.41;100.00;100320.06;110363;1238;73831;-68
2023/04/14 02:03:03;;;;;;;38.60;22.20;;;;;;;3.38;100.00;100318.15;110268;1238;61628;-69
2023/04/14 02:05:35;;;;;;;38.40;27.40;;;;;;;3.36;100.00;100317.23;110226;1238;59774;-68
2023/04/14 02:08:12;;;;;;;33.90;23.20;;;;;;;3.35;100.00;100315.39;110136;1236;63230;-67
2023/04/14 02:10:45;;;;;;;34.70;22.30;;;;;;;3.31;100.00;100314.54;110176;1236;60153;-67
2023/04/14 02:13:18;;;;;;;37.20;24.60;;;;;;;3.29;100.00;100313.44;110400;1238;58373;-67
2023/04/14 02:15:49;;;;;;;34.90;23.20;;;;;;;3.28;100.00;100312.98;110366;1236;74307;-68
2023/04/14 02:18:22;;;;;;;35.50;23.20;;;;;;;3.26;100.00;100312.19;110385;1238;72160;-68
2023/04/14 02:20:53;;;;;;;37.50;23.20;;;;;;;3.26;100.00;100312.90;110112;1234;71561;-68
2023/04/14 02:23:22;;;;;;;38.00;24.00;;;;;;;3.25;100.00;100311.94;110261;1238;73327;-68
2023/04/14 02:26:01;;;;;;;36.20;22.80;;;;;;;3.23;100.00;100312.50;110531;1236;62376;-67
2023/04/14 02:28:36;;;;;;;36.70;22.30;;;;;;;3.22;100.00;100308.98;110342;1235;60914;-68
2023/04/14 02:31:12;;;;;;;36.30;22.10;;;;;;;3.21;100.00;100310.38;110250;1238;74855;-67
2023/04/14 02:33:45;;;;;;;37.30;22.30;;;;;;;3.21;100.00;100312.09;110245;1238;72449;-68
2023/04/14 02:36:23;;;;;;;34.60;22.70;;;;;;;3.22;100.00;100312.04;110310;1235;60496;-68
2023/04/14 02:38:56;;;;;;;40.60;23.30;;;;;;;3.24;100.00;100314.02;110268;1235;72922;-68
2023/04/14 02:41:28;;;;;;;45.10;23.70;;;;;;;3.25;100.00;100314.00;110293;1239;57860;-68
2023/04/14 02:44:14;;;;;;;40.60;24.70;;;;;;;3.22;100.00;100313.08;110346;1235;57681;-68
2023/04/14 02:46:54;;;;;;;44.50;25.40;;;;;;;3.19;100.00;100310.48;110301;1235;63543;-68
2023/04/14 02:49:25;;;;;;;44.10;25.70;;;;;;;3.16;100.00;100311.15;110307;1238;72130;-68
2023/04/14 02:51:55;;;;;;;39.60;23.70;;;;;;;3.13;100.00;100314.36;110199;1235;69436;-68
2023/04/14 02:54:25;;;;;;;43.30;24.30;;;;;;;3.09;100.00;100320.08;110119;1239;74420;-68
2023/04/14 02:56:56;;;;;;;38.90;24.10;;;;;;;3.04;100.00;100318.08;110248;1238;58320;-68
2023/04/14 02:59:28;;;;;;;38.00;24.30;;;;;;;3.02;100.00;100318.86;110295;1235;58287;-68
2023/04/14 03:02:04;;;;;;;35.90;22.90;;;;;;;2.96;100.00;100311.76;110056;1235;74352;-68
2023/04/14 03:04:37;;;;;;;38.20;23.30;;;;;;;2.85;100.00;100305.73;110302;1235;71661;-68
2023/04/14 03:07:12;;;;;;;36.80;23.60;;;;;;;2.80;100.00;100305.79;110192;1235;70802;-68
2023/04/14 03:09:41;;;;;;;34.50;23.30;;;;;;;2.81;100.00;100305.22;110353;1235;63617;-67
2023/04/14 03:12:14;;;;;;;35.70;23.30;;;;;;;2.82;100.00;100307.55;110299;1238;58315;-67
2023/04/14 03:14:44;;;;;;;;;;;;;;;2.85;100.00;100309.86;110311;1235;57716;-67
2023/04/14 03:17:13;;;;;;;35.70;21.90;;;;;;;2.84;100.00;100311.77;110155;1235;72595;-67
2023/04/14 03:19:47;;;;;;;38.40;23.70;;;;;;;2.84;100.00;100317.30;110368;1235;72666;-68
2023/04/14 03:22:17;;;;;;;;;;;;;;;2.82;100.00;100317.53;110326;1235;70935;-67
2023/04/14 03:24:46;;;;;;;43.50;26.00;;;;;;;2.82;100.00;100324.95;110445;1235;74373;-67
2023/04/14 03:27:24;;;;;;;37.60;25.30;;;;;;;2.84;100.00;100330.73;110206;1239;58182;-67
2023/04/14 03:30:00;;;;;;;37.20;24.80;;;;;;;2.86;100.00;100333.37;110222;1238;60568;-67
2023/04/14 03:32:40;;;;;;;42.00;25.20;;;;;;;2.86;100.00;100333.72;110202;1235;64276;-67
2023/04/14 03:35:13;;;;;;;41.70;25.00;;;;;;;2.85;100.00;100328.96;110168;1235;72211;-67
2023/04/14 03:37:47;;;;;;;36.70;24.00;;;;;;;2.83;100.00;100329.54;110345;1235;59400;-67
2023/04/14 03:40:16;;;;;;;40.40;25.70;;;;;;;2.84;100.00;100336.21;110150;1235;72095;-67
2023/04/14 03:42:48;;;;;;;39.90;24.80;;;;;;;2.85;100.00;100336.34;110101;1239;61255;-67
2023/04/14 03:45:20;;;;;;;39.90;24.50;;;;;;;2.86;100.00;100336.33;110261;1235;61731;-67
2023/04/14 03:47:52;;;;;;;39.00;24.00;;;;;;;2.86;100.00;100329.61;110311;1238;75234;-67
2023/04/14 03:50:22;;;;;;;39.30;25.30;;;;;;;2.85;100.00;100327.91;110290;1235;72460;-68
2023/04/14 03:52:53;;;;;;;38.10;23.50;;;;;;;2.85;100.00;100324.81;110113;1235;70240;-68
2023/04/14 03:55:25;;;;;;;38.60;25.30;;;;;;;2.87;100.00;100328.14;110355;1235;63733;-67
2023/04/14 03:57:57;;;;;;;39.80;24.30;;;;;;;2.93;100.00;100331.86;110282;1235;58319;-67
2023/04/14 04:00:28;;;;;;;39.30;24.20;;;;;;;2.98;100.00;100334.89;110130;1235;58322;-67
2023/04/14 04:02:57;;;;;;;38.30;23.30;;;;;;;3.03;100.00;100338.60;110376;1235;74340;-67
2023/04/14 04:05:27;;;;;;;38.40;24.80;;;;;;;3.08;100.00;100344.72;110219;1235;72647;-67
2023/04/14 04:08:01;;;;;;;35.10;23.90;;;;;;;3.13;100.00;100347.95;110114;1235;70179;-67
2023/04/14 04:10:34;;;;;;;39.80;25.30;;;;;;;3.20;100.00;100353.30;110242;1237;74175;-67
2023/04/14 04:13:15;;;;;;;36.10;23.80;;;;;;;3.23;100.00;100353.13;110036;1240;58247;-68
2023/04/14 04:15:47;;;;;;;38.20;23.60;;;;;;;3.29;100.00;100354.39;110140;1238;61572;-68
2023/04/14 04:18:18;;;;;;;40.80;24.40;;;;;;;3.35;100.00;100357.72;110269;1238;73183;-68
2023/04/14 04:20:48;;;;;;;40.80;24.90;;;;;;;3.44;100.00;100360.58;110261;1235;72613;-67
2023/04/14 04:23:19;;;;;;;37.80;25.10;;;;;;;3.55;100.00;100362.64;110308;1235;69672;-67
2023/04/14 04:25:48;;;;;;;43.20;25.10;;;;;;;3.65;100.00;100362.28;110286;1235;73553;-68
2023/04/14 04:28:23;;;;;;;40.00;25.40;;;;;;;3.76;100.00;100362.80;110206;1238;57879;-67
2023/04/14 04:30:55;;;;;;;41.60;26.10;;;;;;;3.85;100.00;100363.89;110298;1235;58271;-68
2023/04/14 04:33:26;;;;;;;46.80;25.70;;;;;;;3.95;100.00;100365.09;110269;1236;65587;-68
2023/04/14 04:35:56;;;;;;;44.30;26.60;;;;;;;4.06;100.00;100368.34;110385;1235;61252;-68
2023/04/14 04:38:29;;;;;;;51.00;28.50;;;;;;;4.19;100.00;100372.35;110278;1234;59065;-68
2023/04/14 04:40:58;;;;;;;43.90;26.90;;;;;;;4.30;100.00;100371.94;110412;1234;63222;-68
2023/04/14 04:43:27;;;;;;;47.50;27.10;;;;;;;4.42;100.00;100372.16;110081;1238;63134;-69
2023/04/14 04:46:33;;;;;;;47.00;27.60;;;;;;;4.53;100.00;100367.48;110400;1234;60128;-68
2023/04/14 04:49:02;;;;;;;47.80;28.30;;;;;;;4.68;100.00;100371.85;110378;1235;74021;-68
2023/04/14 04:51:31;;;;;;;47.40;28.50;;;;;;;4.80;100.00;100375.36;110198;1234;61996;-68
2023/04/14 04:54:00;;;;;;;51.50;29.00;;;;;;;4.91;100.00;100373.20;110426;1235;59709;-68
2023/04/14 04:56:29;;;;;;;41.20;27.80;;;;;;;5.04;100.00;100378.35;110394;1235;73103;-68
2023/04/14 04:59:01;;;;;;;54.40;30.80;;;;;;;5.17;100.00;100380.43;110370;1235;62636;-68
2023/04/14 05:01:30;;;;;;;46.00;30.10;;;;;;;5.29;100.00;100381.29;110382;1235;60948;-68
2023/04/14 05:03:58;;;;;;;48.00;29.70;;;;;;;5.38;100.00;100386.83;110068;1234;74701;-68
2023/04/14 05:06:27;;;;;;;48.30;27.90;;;;;;;5.51;100.00;100388.68;110505;1235;62129;-68
2023/04/14 05:08:56;;;;;;;46.60;27.90;;;;;;;5.65;100.00;100389.98;110281;1235;59209;-68
2023/04/14 05:11:25;;;;;;;49.20;28.70;;;;;;;5.77;100.00;100389.48;110378;1235;63286;-68
2023/04/14 05:13:55;;;;;;;50.60;29.10;;;;;;;5.88;100.00;100386.92;110339;1235;58287;-68
2023/04/14 05:16:24;;;;;;;58.20;29.70;;;;;;;6.02;100.00;100382.15;110360;1235;60020;-68
2023/04/14 05:18:53;;;;;;;57.30;28.50;;;;;;;6.17;100.00;100379.23;110297;1238;64268;-68
2023/04/14 05:21:22;;;;;;;48.90;29.60;;;;;;;6.32;100.00;100375.54;110396;1235;61676;-68
2023/04/14 05:23:51;;;;;;;55.50;31.00;;;;;;;6.49;100.00;100371.94;110305;1235;59537;-71
2023/04/14 05:26:21;;;;;;;49.60;30.70;;;;;;;6.64;100.00;100362.52;110365;1237;73385;-68
2023/04/14 05:28:53;;;;;;;56.50;32.50;;;;;;;6.81;100.00;100362.52;110344;1237;63565;-69
2023/04/14 05:31:22;;;;;;;51.60;29.90;;;;;;;6.97;100.00;100360.27;110555;1235;61011;-68
2023/04/14 05:33:50;;;;;;;51.80;29.60;;;;;;;7.12;100.00;100355.02;110528;1235;73867;-68
2023/04/14 05:36:19;;;;;;;51.70;31.20;;;;;;;7.24;100.00;100354.93;110530;1235;61333;-68
2023/04/14 05:38:48;;;;;;;55.60;32.30;;;;;;;7.40;100.00;100352.20;110401;1234;59221;-69
2023/04/14 05:41:17;;;;;;;56.90;32.60;;;;;;;7.54;100.00;100352.33;110384;1235;72733;-75
2023/04/14 05:43:45;;;;;;;58.40;33.00;;;;;;;7.71;100.00;100353.30;110343;1237;59806;-70
2023/04/14 05:46:14;;;;;;;68.30;36.00;;;;;;;7.84;100.00;100349.48;110476;1235;57740;-71
2023/04/14 05:48:43;;;;;;;52.30;31.20;;;;;;;7.94;100.00;100348.13;110353;1235;72946;-72
2023/04/14 05:51:12;;;;;;;54.10;31.90;;;;;;;8.09;100.00;100344.48;110214;1235;72703;-71
2023/04/14 05:53:40;;;;;;;48.00;27.90;;;;;;;8.24;100.00;100341.02;110379;1235;71502;-71
2023/04/14 05:56:10;;;;;;;38.40;25.80;;;;;;;8.43;100.00;100332.98;110330;1234;63822;-71
2023/04/14 05:58:39;;;;;;;44.10;24.20;;;;;;;8.62;100.00;100330.45;110435;1235;57893;-71
2023/04/14 06:01:08;;;;;;;34.10;22.40;;;;;;;8.78;100.00;100330.50;110403;1235;60752;-70
2023/04/14 06:03:36;;;;;;;35.00;23.20;;;;;;;8.96;100.00;100326.64;110371;1234;74834;-71
2023/04/14 06:06:08;;;;;;;30.40;21.40;;;;;;;9.10;100.00;100327.38;110397;1235;62015;-71
2023/04/14 06:08:37;;;;;;;31.80;22.40;;;;;;;9.31;100.00;100322.02;110458;1235;70474;-72
2023/04/14 06:11:06;;;;;;;31.00;21.40;;;;;;;9.49;100.00;100320.21;110293;1235;74294;-72
2023/04/14 06:13:34;;;;;;;28.50;21.20;;;;;;;9.64;100.00;100318.77;110422;1236;61591;-71
2023/04/14 06:16:04;;;;;;;36.70;22.60;;;;;;;9.79;100.00;100318.66;110481;1234;60947;-71
2023/04/14 06:18:33;;;;;;;33.50;22.60;;;;;;;9.95;100.00;100317.44;110102;1235;72317;-71
2023/04/14 06:21:02;;;;;;;33.40;21.50;;;;;;;10.05;100.00;100315.29;110298;1235;72550;-72
2023/04/14 06:23:31;;;;;;;35.30;21.00;;;;;;;10.14;100.00;100312.30;110243;1235;69969;-72
2023/04/14 06:26:00;;;;;;;30.50;20.70;;;;;;;10.29;100.00;100312.90;110202;1235;64930;-71
2023/04/14 06:28:29;;;;;;;28.20;21.10;;;;;;;10.40;100.00;100312.09;110118;1238;62331;-71
2023/04/14 06:30:59;;;;;;;37.80;21.90;;;;;;;10.53;100.00;100314.58;110267;1235;61004;-69
2023/04/14 06:33:28;;;;;;;31.70;20.90;;;;;;;10.70;100.00;100318.21;110180;1235;75030;-70
2023/04/14 06:35:56;;;;;;;30.20;20.80;;;;;;;10.84;100.00;100316.77;110428;1235;72841;-70
2023/04/14 06:38:25;;;;;;;32.40;20.90;;;;;;;10.95;100.00;100315.38;110326;1235;60481;-71
2023/04/14 06:40:54;;;;;;;26.10;17.80;;;;;;;11.04;100.00;100320.05;110239;1235;62521;-72
2023/04/14 06:43:23;;;;;;;25.70;18.40;;;;;;;11.16;99.75;100316.49;110206;1237;58236;-71
2023/04/14 06:45:52;;;;;;;23.60;16.70;;;;;;;11.30;98.56;100317.42;110245;1235;59803;-71
2023/04/14 06:48:20;;;;;;;25.00;17.20;;;;;;;11.41;97.08;100315.00;110164;1235;74120;-71
2023/04/14 06:50:54;;;;;;;23.20;15.60;;;;;;;11.49;96.59;100316.94;110242;1235;70750;-71
2023/04/14 06:53:23;;;;;;;24.60;16.40;;;;;;;11.65;95.99;100318.76;110259;1234;59151;-71
2023/04/14 06:55:57;;;;;;;25.00;17.00;;;;;;;11.74;94.40;100319.08;110491;1236;63244;-71
2023/04/14 06:58:28;;;;;;;21.80;15.90;;;;;;;11.91;95.08;100322.19;110542;1236;58211;-70
2023/04/14 07:01:02;;;;;;;22.60;15.80;;;;;;;12.02;91.95;100319.53;110300;1234;61025;-71
2023/04/14 07:03:31;;;;;;;22.00;15.00;;;;;;;11.90;90.62;100307.95;110140;1235;74750;-71
2023/04/14 07:06:10;;;;;;;23.90;15.50;;;;;;;12.11;91.20;100317.55;110606;1235;72763;-72
2023/04/14 07:08:39;;;;;;;22.00;14.60;;;;;;;12.29;89.74;100313.92;110587;1236;59508;-71
2023/04/14 07:11:10;;;;;;;21.10;15.50;;;;;;;12.43;88.48;100310.75;110438;1237;72068;-73
2023/04/14 07:13:40;;;;;;;22.70;14.90;;;;;;;12.55;87.71;100307.27;110295;1235;60423;-70
2023/04/14 07:16:09;;;;;;;21.70;15.40;;;;;;;12.65;86.35;100303.30;110606;1234;61522;-71
2023/04/14 07:18:37;;;;;;;18.60;13.60;;;;;;;12.81;85.42;100298.91;110607;1235;74310;-71
2023/04/14 07:21:06;;;;;;;20.80;14.50;;;;;;;13.00;84.30;100301.96;110337;1234;62819;-71
2023/04/14 07:23:35;;;;;;;24.70;14.00;;;;;;;13.20;84.51;100300.55;110616;1236;59988;-71
2023/04/14 07:26:04;;;;;;;16.90;12.00;;;;;;;13.39;83.45;100298.46;110567;1235;74265;-71
2023/04/14 07:28:33;;;;;;;17.40;12.90;;;;;;;13.62;83.82;100300.60;110393;1234;60739;-71
2023/04/14 07:31:09;;;;;;;21.80;12.80;;;;;;;13.81;82.07;100298.66;110352;1233;61605;-73
2023/04/14 07:33:38;;;;;;;20.10;11.80;;;;;;;13.91;78.87;100302.42;110385;1239;63554;-71
2023/04/14 07:36:08;;;;;;;18.30;12.00;;;;;;;14.07;79.00;100303.23;110519;1236;61565;-73
2023/04/14 07:38:37;;;;;;;17.10;12.30;;;;;;;14.20;78.85;100301.79;110425;1233;70451;-72
2023/04/14 07:41:06;;;;;;;20.50;12.00;;;;;;;14.29;77.19;100299.59;110360;1235;73558;-72
2023/04/14 07:43:35;;;;;;;15.40;11.60;;;;;;;14.40;76.14;100299.73;110267;1238;60832;-72
2023/04/14 07:46:06;;;;;;;16.10;11.90;;;;;;;14.51;74.74;100296.58;110378;1237;60446;-71
2023/04/14 07:48:36;;;;;;;15.50;11.20;;;;;;;14.63;74.33;100300.34;110314;1238;63826;-72
2023/04/14 07:51:06;;;;;;;15.20;12.20;;;;;;;14.83;74.82;100302.64;110611;1236;61623;-70
2023/04/14 07:53:41;;;;;;;18.90;12.00;;;;;;;14.87;74.41;100305.04;110174;1239;60014;-71
2023/04/14 07:56:11;;;;;;;16.40;12.00;;;;;;;14.89;74.21;100307.49;110391;1235;73264;-71
2023/04/14 07:58:40;;;;;;;17.80;12.50;;;;;;;15.03;74.53;100305.46;110246;1238;57773;-71
2023/04/14 08:01:09;;;;;;;20.00;12.60;;;;;;;15.15;73.65;100303.61;110387;1235;61289;-71
2023/04/14 08:03:37;;;;;;;16.20;12.20;;;;;;;15.35;74.17;100303.19;110390;1234;73904;-73
2023/04/14 08:06:10;;;;;;;19.80;12.90;;;;;;;15.40;72.34;100298.27;110366;1236;62029;-71
2023/04/14 08:08:39;;;;;;;19.20;13.00;;;;;;;15.44;72.21;100300.15;110387;1235;70942;-71
2023/04/14 08:11:08;;;;;;;20.30;12.60;;;;;;;15.52;71.59;100297.84;110401;1235;73247;-73
2023/04/14 08:13:36;;;;;;;16.80;12.60;;;;;;;15.43;71.74;100295.90;110358;1236;59912;-72
2023/04/14 08:16:05;;;;;;;24.90;13.40;;;;;;;15.58;72.56;100294.07;110258;1238;57737;-71
2023/04/14 08:18:35;;;;;;;15.50;11.10;;;;;;;15.65;71.00;100295.46;110405;1237;62930;-71
2023/04/14 08:21:04;;;;;;;14.10;11.00;;;;;;;15.83;69.68;100288.98;110487;1236;61639;-71
2023/04/14 08:23:33;;;;;;;13.90;10.80;;;;;;;16.00;69.40;100285.63;110498;1235;70467;-71
2023/04/14 08:26:03;;;;;;;15.50;10.10;;;;;;;16.13;68.49;100289.25;110465;1236;62819;-70
2023/04/14 08:28:32;;;;;;;12.50;10.30;;;;;;;16.14;61.33;100290.17;110324;1236;58359;-72
2023/04/14 08:31:01;;;;;;;15.60;10.80;;;;;;;16.26;59.25;100282.10;110526;1236;57698;-70
2023/04/14 08:33:30;;;;;;;15.50;10.90;;;;;;;16.49;59.56;100277.28;110386;1235;74534;-71
2023/04/14 08:35:59;;;;;;;14.00;10.30;;;;;;;16.68;59.30;100274.79;110228;1235;71724;-70
2023/04/14 08:38:28;;;;;;;12.60;10.00;;;;;;;16.72;57.45;100272.27;110416;1238;59557;-71
2023/04/14 08:41:00;;;;;;;15.20;10.70;;;;;;;16.78;56.65;100272.45;110476;1238;62686;-70
2023/04/14 08:43:29;;;;;;;14.00;10.40;;;;;;;16.73;56.84;100273.20;110139;1239;61743;-71
2023/04/14 08:45:59;;;;;;;26.10;11.20;;;;;;;16.78;57.13;100273.71;110549;1235;60863;-71
2023/04/14 08:48:30;;;;;;;16.30;10.30;;;;;;;16.98;57.56;100269.13;110277;1239;64145;-70
2023/04/14 08:51:25;;;;;;;14.20;9.90;;;;;;;17.15;56.49;100261.79;110376;1239;61652;-71
2023/04/14 08:53:55;;;;;;;11.20;9.10;;;;;;;17.25;56.46;100258.43;110449;1235;69585;-72
2023/04/14 08:56:29;;;;;;;13.80;9.60;;;;;;;17.31;55.89;100258.92;110051;1235;73644;-71
2023/04/14 08:59:00;;;;;;;13.10;8.60;;;;;;;17.44;55.21;100258.67;110279;1238;61600;-71
2023/04/14 09:01:29;;;;;;;13.50;8.50;;;;;;;17.58;54.21;100253.85;110413;1234;57733;-71
2023/04/14 09:04:05;;;;;;;;;;;;;;;17.72;54.40;100253.89;110130;1235;74657;-71
2023/04/14 09:06:35;;;;;;;12.80;8.50;;;;;;;17.82;53.59;100250.91;110295;1238;61949;-71
2023/04/14 09:09:07;;;;;;;18.10;10.50;;;;;;;17.97;53.80;100249.08;110332;1234;69745;-72
2023/04/14 09:11:36;;;;;;;12.00;9.50;;;;;;;18.09;54.02;100246.66;109894;1234;74297;-71
2023/04/14 09:14:06;;;;;;;14.50;9.20;;;;;;;18.11;52.98;100245.69;109967;1238;57837;-72
2023/04/14 09:16:35;;;;;;;13.30;9.40;;;;;;;18.19;52.66;100240.66;110286;1235;61827;-72
2023/04/14 09:19:05;;;;;;;23.50;9.80;;;;;;;18.30;53.40;100242.74;110307;1235;63373;-71
2023/04/14 09:21:37;;;;;;;12.20;8.90;;;;;;;18.53;53.00;100240.98;110221;1235;71353;-71
2023/04/14 09:24:23;;;;;;;14.70;8.80;;;;;;;18.38;52.22;100244.66;110217;1235;60282;-72
2023/04/14 09:26:53;;;;;;;12.70;9.10;;;;;;;18.51;51.96;100243.06;110213;1238;63210;-71
2023/04/14 09:29:22;;;;;;;13.00;8.10;;;;;;;18.83;51.41;100239.95;110365;1235;60416;-70
2023/04/14 09:31:51;;;;;;;11.60;8.90;;;;;;;18.97;50.62;100239.34;110223;1235;61527;-73
2023/04/14 09:34:20;;;;;;;18.20;8.80;;;;;;;19.03;49.39;100237.75;110109;1234;74039;-73
2023/04/14 09:37:08;;;;;;;12.50;7.90;;;;;;;19.13;50.12;100235.38;110135;1235;61228;-71
2023/04/14 09:39:50;;;;;;;11.50;7.20;;;;;;;19.02;49.74;100228.88;110088;1233;69476;-72
2023/04/14 09:42:20;;;;;;;17.80;8.30;;;;;;;19.05;49.25;100230.31;110195;1234;63608;-72
2023/04/14 09:44:53;;;;;;;10.00;6.60;;;;;;;19.07;48.85;100232.42;110174;1235;57848;-72
2023/04/14 09:47:25;;;;;;;11.30;6.10;;;;;;;19.29;48.08;100230.35;109943;1239;57716;-72
2023/04/14 09:50:02;;;;;;;14.40;7.40;;;;;;;19.49;48.07;100221.64;110001;1239;63804;-73
2023/04/14 09:52:45;;;;;;;13.10;6.60;;;;;;;19.63;47.24;100225.70;110013;1235;71448;-73
2023/04/14 09:55:15;;;;;;;8.90;6.10;;;;;;;19.68;46.72;100224.39;110190;1235;60654;-73
2023/04/14 09:57:46;;;;;;;9.40;6.50;;;;;;;19.70;45.90;100218.30;110195;1234;63228;-75
2023/04/14 10:00:15;;;;;;;12.90;7.10;;;;;;;19.34;46.11;100221.34;110155;1237;57814;-74
2023/04/14 10:02:56;;;;;;;12.60;7.30;;;;;;;19.22;46.68;100217.01;110151;1239;60479;-77
2023/04/14 10:05:30;;;;;;;10.40;6.70;;;;;;;19.53;47.13;100216.23;110079;1235;73647;-72
2023/04/14 10:08:04;;;;;;;9.40;6.30;;;;;;;19.46;46.30;100218.52;109781;1235;69687;-73
2023/04/14 10:10:33;;;;;;;8.40;6.10;;;;;;;19.61;46.53;100213.55;109834;1235;71024;-72
2023/04/14 10:13:02;;;;;;;8.60;6.30;;;;;;;19.20;46.25;100214.04;110154;1235;74235;-73
2023/04/14 10:15:31;;;;;;;10.60;6.70;;;;;;;19.22;46.54;100213.46;110063;1235;61612;-72
2023/04/14 10:18:00;;;;;;;9.70;6.30;;;;;;;19.45;45.89;100210.78;110100;1235;59361;-72
2023/04/14 10:20:30;;;;;;;7.90;5.90;;;;;;;19.47;45.65;100212.88;110076;1239;63267;-73
2023/04/14 10:22:59;;;;;;;7.90;5.30;;;;;;;19.76;45.98;100211.61;110096;1235;72093;-73
2023/04/14 10:25:30;;;;;;;11.20;6.10;;;;;;;19.64;45.54;100215.45;110196;1238;60682;-73
2023/04/14 10:27:58;;;;;;;13.40;6.50;;;;;;;19.55;45.30;100209.86;110204;1235;72987;-73
2023/04/14 10:30:27;;;;;;;8.70;5.70;;;;;;;19.19;45.91;100210.27;110345;1234;61728;-74
2023/04/14 10:32:56;;;;;;;18.10;6.40;;;;;;;19.20;46.26;100213.71;110172;1235;58110;-75
2023/04/14 10:35:26;;;;;;;9.60;6.20;;;;;;;18.93;46.90;100219.72;110240;1234;63369;-74
2023/04/14 10:37:54;;;;;;;12.30;6.70;;;;;;;18.94;46.76;100218.33;110194;1237;71460;-75
2023/04/14 10:40:23;;;;;;;8.00;5.50;;;;;;;19.04;46.79;100218.21;110230;1235;60541;-75
2023/04/14 10:42:54;;;;;;;7.20;5.40;;;;;;;19.28;46.53;100213.48;110198;1238;63324;-78
2023/04/14 10:45:24;;;;;;;9.50;5.70;;;;;;;19.53;46.45;100215.88;110027;1234;60387;-75
2023/04/14 10:47:54;;;;;;;8.20;6.00;;;;;;;19.72;45.40;100217.92;110193;1234;60771;-77
2023/04/14 10:50:24;;;;;;;10.30;6.30;;;;;;;20.04;44.51;100216.73;109881;1235;74046;-78
2023/04/14 10:52:55;;;;;;;10.60;6.30;;;;;;;19.70;44.75;100216.20;110243;1236;60912;-75
2023/04/14 10:55:27;;;;;;;11.60;6.10;;;;;;;19.83;45.04;100210.02;110229;1235;70416;-75
2023/04/14 10:58:05;;;;;;;8.80;6.10;;;;;;;20.25;44.44;100207.41;110160;1238;62485;-74
2023/04/14 11:00:37;;;;;;;12.50;6.10;;;;;;;20.63;43.86;100197.78;110266;1237;58372;-75
2023/04/14 11:03:16;;;;;;;10.50;5.60;;;;;;;20.67;43.60;100197.58;110235;1235;59482;-76
2023/04/14 11:05:51;;;;;;;11.50;5.60;;;;;;;20.59;43.62;100196.81;110258;1234;74914;-77
2023/04/14 11:08:33;;;;;;;9.30;5.90;;;;;;;20.95;42.61;100194.08;110175;1235;71741;-76
2023/04/14 11:11:05;;;;;;;10.50;6.10;;;;;;;20.82;42.84;100196.49;110428;1236;60351;-76
2023/04/14 11:13:34;;;;;;;9.30;5.70;;;;;;;21.10;42.59;100193.77;110293;1236;73381;-76
2023/04/14 11:16:09;;;;;;;7.50;4.90;;;;;;;21.09;42.18;100195.77;110201;1235;58318;-76
2023/04/14 11:18:44;;;;;;;9.40;5.60;;;;;;;21.04;42.58;100195.39;110090;1235;57737;-76
2023/04/14 11:21:16;;;;;;;7.70;4.80;;;;;;;21.29;42.36;100193.59;110155;1234;73565;-76
2023/04/14 11:23:45;;;;;;;7.60;4.90;;;;;;;21.34;42.11;100193.11;110257;1235;72571;-76
2023/04/14 11:26:14;;;;;;;9.50;5.30;;;;;;;21.37;42.01;100187.38;110237;1234;61079;-76